Time,TemperatureF,DewpointF,PressureIn,WindDirection,WindDirectionDegrees,WindSpeedMPH,WindSpeedGustMPH,Humidity,HourlyPrecipIn,Conditions,Clouds,dailyrainin,SolarRadiationWatts/m^2,SoftwareType,DateUTC
2013-03-10 00:00:00,27.8,26.8,30.29,WSW,248,1.0,1.0,96,0.00,,,0.00,0,Wunderground v.1.15,2013-03-10 05:00:00,
2013-03-10 00:02:00,27.8,26.8,30.29,WSW,248,1.0,1.0,96,0.00,,,0.00,0,Wunderground v.1.15,2013-03-10 05:02:00,
2013-03-10 00:03:00,27.8,26.8,30.29,WSW,252,1.0,1.0,96,0.00,,,0.00,0,Wunderground v.1.15,2013-03-10 05:03:00,
2013-03-10 00:06:00,27.8,26.8,30.29,WSW,246,0.0,1.0,96,0.00,,,0.00,0,Wunderground v.1.15,2013-03-10 05:06:00,
2013-03-10 00:11:00,27.8,26.8,30.29,WSW,247,0.0,0.0,96,0.00,,,0.00,0,Wunderground v.1.15,2013-03-10 05:11:00,
2013-03-10 00:17:00,27.8,26.6,30.29,WSW,248,0.0,0.0,95,0.00,,,0.00,0,Wunderground v.1.15,2013-03-10 05:17:00,
2013-03-10 00:22:00,27.7,26.7,30.29,WSW,252,0.0,0.0,96,0.00,,,0.00,0,Wunderground v.1.15,2013-03-10 05:22:00,
2013-03-10 00:28:00,27.6,26.4,30.29,WSW,248,0.0,0.0,95,0.00,,,0.00,0,Wunderground v.1.15,2013-03-10 05:28:00,
2013-03-10 00:33:00,27.4,26.2,30.29,WSW,250,0.0,0.0,95,0.00,,,0.00,0,Wunderground v.1.15,2013-03-10 05:33:00,
2013-03-10 00:39:00,27.2,26.0,30.29,WSW,249,1.0,2.0,95,0.00,,,0.00,0,Wunderground v.1.15,2013-03-10 05:39:00,
2013-03-10 00:44:00,27.2,26.2,30.29,WSW,250,1.0,1.0,96,0.00,,,0.00,0,Wunderground v.1.15,2013-03-10 05:44:00,
2013-03-10 00:49:00,27.2,26.2,30.29,WSW,249,0.0,1.0,96,0.00,,,0.00,0,Wunderground v.1.15,2013-03-10 05:49:00,
2013-03-10 00:54:00,27.2,26.2,30.29,WSW,248,0.0,0.0,96,0.00,,,0.00,0,Wunderground v.1.15,2013-03-10 05:54:00,
2013-03-10 01:00:00,27.1,25.9,30.29,WSW,250,0.0,0.0,95,0.00,,,0.00,0,Wunderground v.1.15,2013-03-10 06:00:00,
2013-03-10 01:06:00,27.1,25.6,30.29,WSW,250,0.0,0.0,94,0.00,,,0.00,0,Wunderground v.1.15,2013-03-10 06:06:00,
2013-03-10 01:11:00,26.9,25.4,30.29,WSW,250,0.0,0.0,94,0.00,,,0.00,0,Wunderground v.1.15,2013-03-10 06:11:00,
2013-03-10 01:16:00,26.9,25.7,30.29,WSW,250,0.0,2.0,95,0.00,,,0.00,0,Wunderground v.1.15,2013-03-10 06:16:00,
2013-03-10 01:22:00,27.0,25.8,30.29,WSW,250,1.0,2.0,95,0.00,,,0.00,0,Wunderground v.1.15,2013-03-10 06:22:00,
2013-03-10 01:27:00,26.9,25.7,30.29,WSW,247,1.0,2.0,95,0.00,,,0.00,0,Wunderground v.1.15,2013-03-10 06:27:00,
2013-03-10 01:32:00,27.0,25.8,30.29,WSW,250,1.0,1.0,95,0.00,,,0.00,0,Wunderground v.1.15,2013-03-10 06:32:00,
2013-03-10 01:38:00,26.9,25.4,30.28,WSW,247,0.0,1.0,94,0.00,,,0.00,0,Wunderground v.1.15,2013-03-10 06:38:00,
2013-03-10 01:43:00,26.9,25.1,30.28,WSW,250,0.0,0.0,93,0.00,,,0.00,0,Wunderground v.1.15,2013-03-10 06:43:00,
2013-03-10 01:48:00,26.9,25.1,30.28,WSW,250,0.0,0.0,93,0.00,,,0.00,0,Wunderground v.1.15,2013-03-10 06:48:00,
2013-03-10 01:54:00,26.8,25.3,30.28,WSW,247,0.0,1.0,94,0.00,,,0.00,0,Wunderground v.1.15,2013-03-10 06:54:00,
2013-03-10 01:59:00,26.7,25.5,30.28,WSW,247,0.0,1.0,95,0.00,,,0.00,0,Wunderground v.1.15,2013-03-10 06:59:00,
2013-03-10 03:05:00,26.6,25.1,30.28,WSW,250,0.0,0.0,94,0.00,,,0.00,0,Wunderground v.1.15,2013-03-10 07:05:00,
2013-03-10 03:10:00,26.5,25.0,30.28,WSW,249,0.0,0.0,94,0.00,,,0.00,0,Wunderground v.1.15,2013-03-10 07:10:00,
2013-03-10 03:16:00,26.4,24.9,30.27,WSW,248,0.0,0.0,94,0.00,,,0.00,0,Wunderground v.1.15,2013-03-10 07:16:00,
2013-03-10 03:21:00,26.3,24.8,30.27,WSW,250,0.0,0.0,94,0.00,,,0.00,0,Wunderground v.1.15,2013-03-10 07:21:00,
2013-03-10 03:26:00,26.3,24.8,30.27,WSW,249,0.0,0.0,94,0.00,,,0.00,0,Wunderground v.1.15,2013-03-10 07:26:00,
2013-03-10 03:32:00,26.5,25.3,30.27,WSW,249,0.0,0.0,95,0.00,,,0.00,0,Wunderground v.1.15,2013-03-10 07:32:00,
2013-03-10 03:37:00,26.6,25.4,30.27,WSW,248,0.0,0.0,95,0.00,,,0.00,0,Wunderground v.1.15,2013-03-10 07:37:00,
2013-03-10 03:43:00,26.7,25.5,30.27,WSW,248,0.0,0.0,95,0.00,,,0.00,0,Wunderground v.1.15,2013-03-10 07:43:00,
2013-03-10 03:48:00,26.7,25.2,30.26,WSW,246,0.0,0.0,94,0.00,,,0.00,0,Wunderground v.1.15,2013-03-10 07:48:00,
2013-03-10 03:53:00,26.7,25.2,30.26,WSW,247,0.0,0.0,94,0.00,,,0.00,0,Wunderground v.1.15,2013-03-10 07:53:00,
2013-03-10 03:59:00,26.8,25.3,30.26,WSW,248,0.0,0.0,94,0.00,,,0.00,0,Wunderground v.1.15,2013-03-10 07:59:00,
2013-03-10 04:05:00,26.8,25.0,30.26,WSW,250,0.0,0.0,93,0.00,,,0.00,0,Wunderground v.1.15,2013-03-10 08:05:00,
2013-03-10 04:10:00,26.8,25.0,30.26,WSW,249,0.0,0.0,93,0.00,,,0.00,0,Wunderground v.1.15,2013-03-10 08:10:00,
2013-03-10 04:15:00,26.8,25.0,30.26,WSW,247,0.0,0.0,93,0.00,,,0.00,0,Wunderground v.1.15,2013-03-10 08:15:00,
2013-03-10 04:21:00,26.6,24.8,30.26,WSW,249,0.0,0.0,93,0.00,,,0.00,0,Wunderground v.1.15,2013-03-10 08:21:00,
2013-03-10 04:26:00,26.5,24.8,30.26,WSW,249,0.0,0.0,93,0.00,,,0.00,0,Wunderground v.1.15,2013-03-10 08:26:00,
2013-03-10 04:31:00,26.5,25.0,30.26,WSW,250,0.0,1.0,94,0.00,,,0.00,0,Wunderground v.1.15,2013-03-10 08:31:00,
2013-03-10 04:37:00,26.4,24.9,30.26,WSW,249,0.0,2.0,94,0.00,,,0.00,0,Wunderground v.1.15,2013-03-10 08:37:00,
2013-03-10 04:42:00,26.4,24.9,30.26,WSW,247,0.0,0.0,94,0.00,,,0.00,0,Wunderground v.1.15,2013-03-10 08:42:00,
2013-03-10 04:47:00,26.3,24.8,30.26,WSW,248,0.0,0.0,94,0.00,,,0.00,0,Wunderground v.1.15,2013-03-10 08:47:00,
2013-03-10 04:53:00,26.1,24.6,30.26,WSW,250,0.0,0.0,94,0.00,,,0.00,0,Wunderground v.1.15,2013-03-10 08:53:00,
2013-03-10 04:58:00,26.1,24.6,30.26,WSW,246,0.0,0.0,94,0.00,,,0.00,0,Wunderground v.1.15,2013-03-10 08:58:00,
2013-03-10 05:04:00,26.1,24.6,30.27,WSW,250,0.0,1.0,94,0.00,,,0.00,0,Wunderground v.1.15,2013-03-10 09:04:00,
2013-03-10 05:10:00,26.1,24.6,30.27,WSW,249,0.0,0.0,94,0.00,,,0.00,0,Wunderground v.1.15,2013-03-10 09:10:00,
2013-03-10 05:15:00,26.1,24.6,30.27,WSW,248,0.0,0.0,94,0.00,,,0.00,0,Wunderground v.1.15,2013-03-10 09:15:00,
2013-03-10 05:20:00,26.1,24.6,30.27,WSW,248,0.0,0.0,94,0.00,,,0.00,0,Wunderground v.1.15,2013-03-10 09:20:00,
2013-03-10 05:26:00,26.0,24.5,30.26,WSW,247,0.0,0.0,94,0.00,,,0.00,0,Wunderground v.1.15,2013-03-10 09:26:00,
2013-03-10 05:31:00,25.8,24.3,30.26,WSW,247,1.0,2.0,94,0.00,,,0.00,0,Wunderground v.1.15,2013-03-10 09:31:00,
2013-03-10 05:36:00,25.6,24.4,30.26,WSW,247,2.0,2.0,95,0.00,,,0.00,0,Wunderground v.1.15,2013-03-10 09:36:00,
2013-03-10 05:42:00,25.5,24.3,30.26,WSW,248,1.0,1.0,95,0.00,,,0.00,0,Wunderground v.1.15,2013-03-10 09:42:00,
2013-03-10 05:47:00,25.4,23.9,30.26,WSW,249,0.0,1.0,94,0.00,,,0.00,0,Wunderground v.1.15,2013-03-10 09:47:00,
2013-03-10 05:52:00,25.4,24.2,30.26,WSW,250,0.0,0.0,95,0.00,,,0.00,0,Wunderground v.1.15,2013-03-10 09:52:00,
2013-03-10 05:58:00,25.4,24.2,30.26,WSW,251,0.0,1.0,95,0.00,,,0.00,0,Wunderground v.1.15,2013-03-10 09:58:00,
2013-03-10 06:04:00,25.3,24.1,30.25,WSW,247,0.0,0.0,95,0.00,,,0.00,0,Wunderground v.1.15,2013-03-10 10:04:00,
2013-03-10 06:09:00,25.3,24.1,30.26,WSW,250,0.0,1.0,95,0.00,,,0.00,0,Wunderground v.1.15,2013-03-10 10:09:00,
2013-03-10 06:14:00,25.2,24.0,30.26,WSW,248,1.0,2.0,95,0.00,,,0.00,0,Wunderground v.1.15,2013-03-10 10:14:00,
2013-03-10 06:19:00,25.2,24.2,30.26,WSW,250,2.0,2.0,96,0.00,,,0.00,0,Wunderground v.1.15,2013-03-10 10:19:00,
2013-03-10 06:25:00,25.2,24.2,30.26,WSW,250,1.0,1.0,96,0.00,,,0.00,0,Wunderground v.1.15,2013-03-10 10:25:00,
2013-03-10 06:30:00,25.4,24.4,30.26,WSW,246,0.0,0.0,96,0.00,,,0.00,0,Wunderground v.1.15,2013-03-10 10:30:00,
2013-03-10 06:36:00,25.5,24.5,30.26,WSW,250,0.0,0.0,96,0.00,,,0.00,0,Wunderground v.1.15,2013-03-10 10:36:00,
2013-03-10 06:41:00,25.6,24.4,30.26,WSW,250,0.0,0.0,95,0.00,,,0.00,0,Wunderground v.1.15,2013-03-10 10:41:00,
2013-03-10 06:47:00,25.7,24.5,30.26,WSW,248,0.0,0.0,95,0.00,,,0.00,0,Wunderground v.1.15,2013-03-10 10:47:00,
2013-03-10 06:52:00,25.8,24.6,30.26,WSW,248,0.0,0.0,95,0.00,,,0.00,0,Wunderground v.1.15,2013-03-10 10:52:00,
2013-03-10 06:58:00,25.7,24.2,30.26,WSW,251,0.0,0.0,94,0.00,,,0.00,0,Wunderground v.1.15,2013-03-10 10:58:00,
2013-03-10 07:04:00,25.6,24.1,30.27,WSW,248,0.0,0.0,94,0.00,,,0.00,0,Wunderground v.1.15,2013-03-10 11:04:00,
2013-03-10 07:09:00,25.4,23.9,30.27,WSW,248,0.0,0.0,94,0.00,,,0.00,0,Wunderground v.1.15,2013-03-10 11:09:00,
2013-03-10 07:14:00,25.3,24.1,30.27,WSW,250,0.0,0.0,95,0.00,,,0.00,0,Wunderground v.1.15,2013-03-10 11:14:00,
2013-03-10 07:20:00,25.2,24.0,30.27,WSW,248,0.0,0.0,95,0.00,,,0.00,0,Wunderground v.1.15,2013-03-10 11:20:00,
2013-03-10 07:25:00,25.1,23.9,30.28,WSW,250,0.0,0.0,95,0.00,,,0.00,0,Wunderground v.1.15,2013-03-10 11:25:00,
2013-03-10 07:31:00,25.0,23.8,30.28,WSW,248,0.0,0.0,95,0.00,,,0.00,11,Wunderground v.1.15,2013-03-10 11:31:00,
2013-03-10 07:36:00,24.9,23.7,30.28,WSW,248,0.0,2.0,95,0.00,,,0.00,14,Wunderground v.1.15,2013-03-10 11:36:00,
2013-03-10 07:41:00,24.7,23.7,30.28,WSW,248,1.0,2.0,96,0.00,,,0.00,14,Wunderground v.1.15,2013-03-10 11:41:00,
2013-03-10 07:47:00,24.8,23.8,30.28,North,360,1.0,2.0,96,0.00,,,0.00,18,Wunderground v.1.15,2013-03-10 11:47:00,
2013-03-10 07:52:00,24.7,23.7,30.27,WSW,250,0.0,2.0,96,0.00,,,0.00,26,Wunderground v.1.15,2013-03-10 11:52:00,
2013-03-10 07:57:00,24.9,23.9,30.27,WSW,246,1.0,2.0,96,0.00,,,0.00,33,Wunderground v.1.15,2013-03-10 11:57:00,
2013-03-10 08:03:00,25.0,24.0,30.28,WSW,248,2.0,2.0,96,0.00,,,0.00,39,Wunderground v.1.15,2013-03-10 12:03:00,
2013-03-10 08:09:00,25.3,24.3,30.28,WSW,248,1.0,2.0,96,0.00,,,0.00,40,Wunderground v.1.15,2013-03-10 12:09:00,
2013-03-10 08:14:00,25.6,24.6,30.28,WSW,246,1.0,1.0,96,0.00,,,0.00,46,Wunderground v.1.15,2013-03-10 12:14:00,
2013-03-10 08:19:00,25.9,24.9,30.28,WSW,248,0.0,1.0,96,0.00,,,0.00,58,Wunderground v.1.15,2013-03-10 12:19:00,
2013-03-10 08:25:00,26.1,25.1,30.28,WSW,249,0.0,0.0,96,0.00,,,0.00,65,Wunderground v.1.15,2013-03-10 12:25:00,
2013-03-10 08:30:00,26.4,25.4,30.28,WSW,251,0.0,0.0,96,0.00,,,0.00,123,Wunderground v.1.15,2013-03-10 12:30:00,
2013-03-10 08:35:00,26.5,25.5,30.28,North,360,0.0,0.0,96,0.00,,,0.00,114,Wunderground v.1.15,2013-03-10 12:35:00,
2013-03-10 08:41:00,26.7,25.7,30.28,North,360,0.0,0.0,96,0.00,,,0.00,132,Wunderground v.1.15,2013-03-10 12:41:00,
2013-03-10 08:46:00,26.7,25.7,30.28,WSW,249,0.0,0.0,96,0.00,,,0.00,165,Wunderground v.1.15,2013-03-10 12:46:00,
2013-03-10 08:51:00,26.8,25.8,30.28,WSW,246,0.0,0.0,96,0.00,,,0.00,202,Wunderground v.1.15,2013-03-10 12:51:00,
2013-03-10 08:56:00,27.1,26.1,30.28,North,360,0.0,0.0,96,0.00,,,0.00,186,Wunderground v.1.15,2013-03-10 12:56:00,
2013-03-10 09:02:00,27.6,26.4,30.28,WSW,246,0.0,0.0,95,0.00,,,0.00,199,Wunderground v.1.15,2013-03-10 13:02:00,
2013-03-10 09:08:00,28.3,27.1,30.28,WSW,249,0.0,0.0,95,0.00,,,0.00,330,Wunderground v.1.15,2013-03-10 13:08:00,
2013-03-10 09:13:00,29.1,27.8,30.29,WSW,249,0.0,0.0,95,0.00,,,0.00,369,Wunderground v.1.15,2013-03-10 13:13:00,
2013-03-10 09:19:00,30.2,27.9,30.29,WSW,246,0.0,0.0,91,0.00,,,0.00,390,Wunderground v.1.15,2013-03-10 13:19:00,
2013-03-10 09:24:00,31.0,28.4,30.28,WSW,249,0.0,0.0,90,0.00,,,0.00,424,Wunderground v.1.15,2013-03-10 13:24:00,
2013-03-10 09:29:00,31.8,28.1,30.28,WSW,247,0.0,0.0,86,0.00,,,0.00,214,Wunderground v.1.15,2013-03-10 13:29:00,
2013-03-10 09:34:00,32.6,28.9,30.29,WSW,248,0.0,0.0,86,0.00,,,0.00,165,Wunderground v.1.15,2013-03-10 13:34:00,
2013-03-10 09:40:00,33.1,29.1,30.28,WSW,248,0.0,0.0,85,0.00,,,0.00,234,Wunderground v.1.15,2013-03-10 13:40:00,
2013-03-10 09:45:00,33.4,29.7,30.28,WSW,250,0.0,0.0,86,0.00,,,0.00,489,Wunderground v.1.15,2013-03-10 13:45:00,
2013-03-10 09:50:00,33.9,30.2,30.28,WSW,248,0.0,0.0,86,0.00,,,0.00,575,Wunderground v.1.15,2013-03-10 13:50:00,
2013-03-10 09:56:00,34.2,30.2,30.28,WSW,246,0.0,2.0,85,0.00,,,0.00,309,Wunderground v.1.15,2013-03-10 13:56:00,
2013-03-10 10:02:00,34.3,30.3,30.28,WSW,246,0.0,2.0,85,0.00,,,0.00,320,Wunderground v.1.15,2013-03-10 14:02:00,
2013-03-10 10:07:00,34.6,30.8,30.28,WSW,249,1.0,2.0,86,0.00,,,0.00,292,Wunderground v.1.15,2013-03-10 14:07:00,
2013-03-10 10:12:00,34.7,30.1,30.28,SSW,200,1.0,1.0,83,0.00,,,0.00,271,Wunderground v.1.15,2013-03-10 14:12:00,
2013-03-10 10:18:00,34.9,30.3,30.28,SSW,197,0.0,1.0,83,0.00,,,0.00,232,Wunderground v.1.15,2013-03-10 14:18:00,
2013-03-10 10:23:00,35.2,30.9,30.28,SSW,200,0.0,0.0,84,0.00,,,0.00,236,Wunderground v.1.15,2013-03-10 14:23:00,
2013-03-10 10:29:00,35.7,30.7,30.28,SSW,199,0.0,0.0,82,0.00,,,0.00,241,Wunderground v.1.15,2013-03-10 14:29:00,
2013-03-10 10:34:00,36.1,31.1,30.27,SSE,161,0.0,2.0,82,0.00,,,0.00,250,Wunderground v.1.15,2013-03-10 14:34:00,
2013-03-10 10:39:00,36.4,31.1,30.28,ESE,115,1.0,3.0,81,0.00,,,0.00,234,Wunderground v.1.15,2013-03-10 14:39:00,
2013-03-10 10:45:00,36.8,31.8,30.27,ESE,115,1.0,1.0,82,0.00,,,0.00,250,Wunderground v.1.15,2013-03-10 14:45:00,
2013-03-10 10:50:00,37.1,32.1,30.27,ESE,116,0.0,0.0,82,0.00,,,0.00,260,Wunderground v.1.15,2013-03-10 14:50:00,
2013-03-10 10:55:00,37.3,31.4,30.27,ESE,114,0.0,0.0,79,0.00,,,0.00,265,Wunderground v.1.15,2013-03-10 14:55:00,
2013-03-10 11:00:00,37.5,31.6,30.27,ESE,107,0.0,0.0,79,0.00,,,0.00,271,Wunderground v.1.15,2013-03-10 15:00:00,
2013-03-10 11:06:00,37.8,31.6,30.27,ESE,105,1.0,2.0,78,0.00,,,0.00,279,Wunderground v.1.15,2013-03-10 15:06:00,
2013-03-10 11:11:00,38.2,31.9,30.27,East,96,1.0,1.0,78,0.00,,,0.00,299,Wunderground v.1.15,2013-03-10 15:11:00,
2013-03-10 11:16:00,38.7,31.8,30.27,East,80,1.0,2.0,76,0.00,,,0.00,309,Wunderground v.1.15,2013-03-10 15:16:00,
2013-03-10 11:21:00,39.2,31.6,30.27,East,84,1.0,1.0,74,0.00,,,0.00,315,Wunderground v.1.15,2013-03-10 15:21:00,
2013-03-10 11:27:00,39.7,32.1,30.27,East,82,0.0,1.0,74,0.00,,,0.00,258,Wunderground v.1.15,2013-03-10 15:27:00,
2013-03-10 11:32:00,40.1,32.8,30.27,East,84,0.0,1.0,75,0.00,,,0.00,271,Wunderground v.1.15,2013-03-10 15:32:00,
2013-03-10 11:37:00,40.3,32.7,30.27,East,86,1.0,2.0,74,0.00,,,0.00,334,Wunderground v.1.15,2013-03-10 15:37:00,
2013-03-10 11:42:00,40.7,33.4,30.26,ENE,62,1.0,3.0,75,0.00,,,0.00,422,Wunderground v.1.15,2013-03-10 15:42:00,
2013-03-10 11:48:00,41.5,32.8,30.26,ENE,75,2.0,3.0,71,0.00,,,0.00,816,Wunderground v.1.15,2013-03-10 15:48:00,
2013-03-10 11:53:00,42.2,32.4,30.26,ENE,70,2.0,3.0,68,0.00,,,0.00,431,Wunderground v.1.15,2013-03-10 15:53:00,
2013-03-10 11:59:00,42.7,32.1,30.26,ENE,72,2.0,3.0,66,0.00,,,0.00,545,Wunderground v.1.15,2013-03-10 15:59:00,
2013-03-10 12:04:00,43.1,32.1,30.25,NE,38,1.0,3.0,65,0.00,,,0.00,517,Wunderground v.1.15,2013-03-10 16:04:00,
2013-03-10 12:09:00,43.5,32.1,30.25,NE,34,1.0,3.0,64,0.00,,,0.00,425,Wunderground v.1.15,2013-03-10 16:09:00,
2013-03-10 12:15:00,44.1,32.7,30.25,NNE,31,1.0,1.0,64,0.00,,,0.00,863,Wunderground v.1.15,2013-03-10 16:15:00,
2013-03-10 12:21:00,45.0,33.2,30.25,ENE,68,1.0,3.0,63,0.00,,,0.00,898,Wunderground v.1.15,2013-03-10 16:21:00,
2013-03-10 12:26:00,45.7,33.8,30.25,East,84,1.0,3.0,63,0.00,,,0.00,946,Wunderground v.1.15,2013-03-10 16:26:00,
2013-03-10 12:31:00,46.4,33.7,30.25,East,90,0.0,1.0,61,0.00,,,0.00,645,Wunderground v.1.15,2013-03-10 16:31:00,
2013-03-10 12:37:00,47.1,33.9,30.25,NE,48,0.0,2.0,60,0.00,,,0.00,759,Wunderground v.1.15,2013-03-10 16:37:00,
2013-03-10 12:42:00,47.5,34.7,30.24,NE,53,1.0,2.0,61,0.00,,,0.00,754,Wunderground v.1.15,2013-03-10 16:42:00,
2013-03-10 12:47:00,48.1,34.0,30.24,ENE,73,1.0,2.0,58,0.00,,,0.00,758,Wunderground v.1.15,2013-03-10 16:47:00,
2013-03-10 12:53:00,48.9,34.3,30.24,SSE,157,0.0,1.0,57,0.00,,,0.00,735,Wunderground v.1.15,2013-03-10 16:53:00,
2013-03-10 12:58:00,49.3,34.7,30.24,SSW,194,1.0,2.0,57,0.00,,,0.00,747,Wunderground v.1.15,2013-03-10 16:58:00,
2013-03-10 13:04:00,50.2,34.6,30.23,South,179,1.0,2.0,55,0.00,,,0.00,740,Wunderground v.1.15,2013-03-10 17:04:00,
2013-03-10 13:09:00,50.7,36.0,30.23,ENE,72,1.0,2.0,57,0.00,,,0.00,758,Wunderground v.1.15,2013-03-10 17:09:00,
2013-03-10 13:15:00,50.8,35.7,30.22,ENE,67,1.0,2.0,56,0.00,,,0.00,772,Wunderground v.1.15,2013-03-10 17:15:00,
2013-03-10 13:20:00,51.1,35.5,30.22,NNW,348,1.0,2.0,55,0.00,,,0.00,779,Wunderground v.1.15,2013-03-10 17:20:00,
2013-03-10 13:26:00,51.8,37.0,30.22,ESE,119,1.0,3.0,57,0.00,,,0.00,777,Wunderground v.1.15,2013-03-10 17:26:00,
2013-03-10 13:31:00,52.6,38.2,30.22,SSW,210,2.0,2.0,58,0.00,,,0.00,765,Wunderground v.1.15,2013-03-10 17:31:00,
2013-03-10 13:36:00,53.3,37.5,30.22,NE,42,2.0,3.0,55,0.00,,,0.00,759,Wunderground v.1.15,2013-03-10 17:36:00,
2013-03-10 13:42:00,53.6,37.3,30.21,East,89,1.0,3.0,54,0.00,,,0.00,747,Wunderground v.1.15,2013-03-10 17:42:00,
2013-03-10 13:47:00,53.8,37.5,30.21,ESE,111,2.0,3.0,54,0.00,,,0.00,728,Wunderground v.1.15,2013-03-10 17:47:00,
2013-03-10 13:53:00,54.0,36.3,30.21,East,84,2.0,3.0,51,0.00,,,0.00,737,Wunderground v.1.15,2013-03-10 17:53:00,
2013-03-10 13:58:00,54.2,37.4,30.20,ENE,71,2.0,4.0,53,0.00,,,0.00,722,Wunderground v.1.15,2013-03-10 17:58:00,
2013-03-10 14:04:00,54.7,36.9,30.20,East,84,2.0,2.0,51,0.00,,,0.00,728,Wunderground v.1.15,2013-03-10 18:04:00,
2013-03-10 14:09:00,55.4,37.1,30.20,SW,232,1.0,2.0,50,0.00,,,0.00,728,Wunderground v.1.15,2013-03-10 18:09:00,
2013-03-10 14:15:00,55.7,36.3,30.20,East,88,2.0,5.0,48,0.00,,,0.00,737,Wunderground v.1.15,2013-03-10 18:15:00,
2013-03-10 14:20:00,56.1,36.1,30.19,SE,144,2.0,2.0,47,0.00,,,0.00,733,Wunderground v.1.15,2013-03-10 18:20:00,
2013-03-10 14:25:00,56.7,38.8,30.19,East,96,1.0,3.0,51,0.00,,,0.00,729,Wunderground v.1.15,2013-03-10 18:25:00,
2013-03-10 14:31:00,56.9,36.9,30.18,East,84,2.0,2.0,47,0.00,,,0.00,717,Wunderground v.1.15,2013-03-10 18:31:00,
2013-03-10 14:36:00,57.4,36.8,30.18,WNW,302,1.0,2.0,46,0.00,,,0.00,705,Wunderground v.1.15,2013-03-10 18:36:00,
2013-03-10 14:42:00,57.9,36.7,30.18,NE,48,2.0,3.0,45,0.00,,,0.00,708,Wunderground v.1.15,2013-03-10 18:42:00,
2013-03-10 14:47:00,58.1,39.5,30.18,South,173,2.0,5.0,50,0.00,,,0.00,698,Wunderground v.1.15,2013-03-10 18:47:00,
2013-03-10 14:52:00,58.7,38.0,30.17,SE,140,3.0,4.0,46,0.00,,,0.00,696,Wunderground v.1.15,2013-03-10 18:52:00,
2013-03-10 14:58:00,59.1,37.2,30.17,SE,125,3.0,4.0,44,0.00,,,0.00,691,Wunderground v.1.15,2013-03-10 18:58:00,
2013-03-10 15:03:00,59.4,38.0,30.17,WNW,290,3.0,4.0,45,0.00,,,0.00,675,Wunderground v.1.15,2013-03-10 19:03:00,
2013-03-10 15:09:00,59.9,37.9,30.17,East,83,2.0,4.0,44,0.00,,,0.00,664,Wunderground v.1.15,2013-03-10 19:09:00,
2013-03-10 15:14:00,60.3,38.9,30.17,ENE,71,1.0,2.0,45,0.00,,,0.00,652,Wunderground v.1.15,2013-03-10 19:14:00,
2013-03-10 15:20:00,60.7,38.6,30.16,SSE,163,2.0,2.0,44,0.00,,,0.00,656,Wunderground v.1.15,2013-03-10 19:20:00,
2013-03-10 15:25:00,60.8,38.7,30.16,South,180,4.0,11.0,44,0.00,,,0.00,671,Wunderground v.1.15,2013-03-10 19:25:00,
2013-03-10 15:31:00,60.5,37.9,30.16,SSE,153,7.0,7.0,43,0.00,,,0.00,255,Wunderground v.1.15,2013-03-10 19:31:00,
2013-03-10 15:36:00,60.5,37.3,30.15,South,178,5.0,7.0,42,0.00,,,0.00,617,Wunderground v.1.15,2013-03-10 19:36:00,
2013-03-10 15:41:00,61.1,39.0,30.15,SSW,198,4.0,4.0,44,0.00,,,0.00,659,Wunderground v.1.15,2013-03-10 19:41:00,
2013-03-10 15:47:00,61.7,39.6,30.15,SE,138,3.0,5.0,44,0.00,,,0.00,587,Wunderground v.1.15,2013-03-10 19:47:00,
2013-03-10 15:53:00,61.8,39.1,30.15,SSW,202,3.0,4.0,43,0.00,,,0.00,547,Wunderground v.1.15,2013-03-10 19:53:00,
2013-03-10 15:59:00,61.8,40.2,30.15,SSE,161,2.0,7.0,45,0.00,,,0.00,510,Wunderground v.1.15,2013-03-10 19:59:00,
2013-03-10 16:05:00,62.2,38.8,30.15,South,175,4.0,6.0,42,0.00,,,0.00,529,Wunderground v.1.15,2013-03-10 20:05:00,
2013-03-10 16:10:00,62.6,40.4,30.15,South,175,4.0,4.0,44,0.00,,,0.00,520,Wunderground v.1.15,2013-03-10 20:10:00,
2013-03-10 16:15:00,63.2,39.1,30.14,South,169,3.0,8.0,41,0.00,,,0.00,489,Wunderground v.1.15,2013-03-10 20:15:00,
2013-03-10 16:21:00,63.4,39.9,30.14,South,176,6.0,11.0,42,0.00,,,0.00,476,Wunderground v.1.15,2013-03-10 20:21:00,
2013-03-10 16:27:00,63.8,39.6,30.14,South,183,6.0,11.0,41,0.00,,,0.00,459,Wunderground v.1.15,2013-03-10 20:27:00,
2013-03-10 16:33:00,63.6,38.8,30.14,South,172,5.0,9.0,40,0.00,,,0.00,441,Wunderground v.1.15,2013-03-10 20:33:00,
2013-03-10 16:38:00,63.5,38.7,30.13,SE,132,6.0,9.0,40,0.00,,,0.00,424,Wunderground v.1.15,2013-03-10 20:38:00,
2013-03-10 16:44:00,62.9,38.8,30.13,South,175,6.0,8.0,41,0.00,,,0.00,422,Wunderground v.1.15,2013-03-10 20:44:00,
2013-03-10 16:50:00,63.1,39.0,30.13,SE,136,7.0,7.0,41,0.00,,,0.00,420,Wunderground v.1.15,2013-03-10 20:50:00,
2013-03-10 16:55:00,63.1,37.7,30.13,SSE,154,7.0,8.0,39,0.00,,,0.00,392,Wunderground v.1.15,2013-03-10 20:55:00,
2013-03-10 17:00:00,62.4,38.4,30.13,East,98,7.0,9.0,41,0.00,,,0.00,359,Wunderground v.1.15,2013-03-10 21:00:00,
2013-03-10 17:06:00,62.2,38.8,30.13,SW,215,7.0,12.0,42,0.00,,,0.00,313,Wunderground v.1.15,2013-03-10 21:06:00,
2013-03-10 17:12:00,62.3,38.3,30.13,SSE,161,7.0,7.0,41,0.00,,,0.00,276,Wunderground v.1.15,2013-03-10 21:12:00,
2013-03-10 17:18:00,61.9,37.9,30.13,SSE,167,6.0,8.0,41,0.00,,,0.00,243,Wunderground v.1.15,2013-03-10 21:18:00,
2013-03-10 17:24:00,61.7,39.0,30.12,ESE,118,7.0,12.0,43,0.00,,,0.00,197,Wunderground v.1.15,2013-03-10 21:24:00,
2013-03-10 17:29:00,61.4,36.8,30.12,South,184,9.0,12.0,40,0.00,,,0.00,141,Wunderground v.1.15,2013-03-10 21:29:00,
2013-03-10 17:35:00,60.7,38.1,30.12,SE,126,9.0,13.0,43,0.00,,,0.00,72,Wunderground v.1.15,2013-03-10 21:35:00,
2013-03-10 17:41:00,59.7,37.2,30.12,SSE,164,11.0,14.0,43,0.00,,,0.00,72,Wunderground v.1.15,2013-03-10 21:41:00,
2013-03-10 17:47:00,59.2,36.7,30.12,ESE,117,10.0,14.0,43,0.00,,,0.00,67,Wunderground v.1.15,2013-03-10 21:47:00,
2013-03-10 17:53:00,58.8,36.9,30.12,SE,132,9.0,11.0,44,0.00,,,0.00,76,Wunderground v.1.15,2013-03-10 21:53:00,
2013-03-10 17:58:00,58.4,36.6,30.12,SE,136,8.0,12.0,44,0.00,,,0.00,88,Wunderground v.1.15,2013-03-10 21:58:00,
2013-03-10 18:04:00,58.2,36.4,30.12,ESE,105,7.0,10.0,44,0.00,,,0.00,95,Wunderground v.1.15,2013-03-10 22:04:00,
2013-03-10 18:09:00,58.0,36.2,30.12,SE,135,7.0,13.0,44,0.00,,,0.00,84,Wunderground v.1.15,2013-03-10 22:09:00,
2013-03-10 18:15:00,57.9,37.2,30.12,SSE,153,7.0,7.0,46,0.00,,,0.00,79,Wunderground v.1.15,2013-03-10 22:15:00,
2013-03-10 18:21:00,57.6,37.0,30.13,SSE,163,6.0,9.0,46,0.00,,,0.00,84,Wunderground v.1.15,2013-03-10 22:21:00,
2013-03-10 18:27:00,57.4,37.3,30.13,South,175,5.0,9.0,47,0.00,,,0.00,79,Wunderground v.1.15,2013-03-10 22:27:00,
2013-03-10 18:33:00,57.2,37.7,30.13,SSE,149,5.0,5.0,48,0.00,,,0.00,62,Wunderground v.1.15,2013-03-10 22:33:00,
2013-03-10 18:39:00,56.9,37.4,30.13,SE,143,4.0,13.0,48,0.00,,,0.00,47,Wunderground v.1.15,2013-03-10 22:39:00,
2013-03-10 18:44:00,56.7,36.1,30.13,SSE,151,6.0,10.0,46,0.00,,,0.00,42,Wunderground v.1.15,2013-03-10 22:44:00,
2013-03-10 18:50:00,56.5,36.5,30.14,SSE,148,6.0,10.0,47,0.00,,,0.00,40,Wunderground v.1.15,2013-03-10 22:50:00,
2013-03-10 18:55:00,56.4,35.9,30.14,SE,146,7.0,10.0,46,0.00,,,0.00,37,Wunderground v.1.15,2013-03-10 22:55:00,
2013-03-10 19:00:00,56.1,35.0,30.14,SE,135,7.0,11.0,45,0.00,,,0.00,32,Wunderground v.1.15,2013-03-10 23:00:00,
2013-03-10 19:06:00,55.9,35.9,30.14,SSE,157,6.0,11.0,47,0.00,,,0.00,28,Wunderground v.1.15,2013-03-10 23:06:00,
2013-03-10 19:12:00,55.5,36.6,30.14,South,178,5.0,5.0,49,0.00,,,0.00,14,Wunderground v.1.15,2013-03-10 23:12:00,
2013-03-10 19:17:00,55.1,35.7,30.14,SE,132,4.0,10.0,48,0.00,,,0.00,5,Wunderground v.1.15,2013-03-10 23:17:00,
2013-03-10 19:23:00,54.5,37.2,30.13,SSW,192,5.0,7.0,52,0.00,,,0.00,0,Wunderground v.1.15,2013-03-10 23:23:00,
2013-03-10 19:29:00,53.8,36.6,30.13,SSE,165,5.0,7.0,52,0.00,,,0.00,0,Wunderground v.1.15,2013-03-10 23:29:00,
2013-03-10 19:35:00,52.6,37.8,30.14,SSE,162,4.0,9.0,57,0.00,,,0.00,0,Wunderground v.1.15,2013-03-10 23:35:00,
2013-03-10 19:41:00,51.7,36.0,30.14,SSW,210,5.0,5.0,55,0.00,,,0.00,0,Wunderground v.1.15,2013-03-10 23:41:00,
2013-03-10 19:46:00,51.1,37.7,30.14,South,182,5.0,5.0,60,0.00,,,0.00,0,Wunderground v.1.15,2013-03-10 23:46:00,
2013-03-10 19:52:00,50.1,37.2,30.14,South,189,5.0,7.0,61,0.00,,,0.00,0,Wunderground v.1.15,2013-03-10 23:52:00,
2013-03-10 19:57:00,49.0,36.5,30.15,South,175,4.0,7.0,62,0.00,,,0.00,0,Wunderground v.1.15,2013-03-10 23:57:00,
2013-03-10 20:03:00,48.0,36.4,30.14,South,190,4.0,7.0,64,0.00,,,0.00,0,Wunderground v.1.15,2013-03-11 00:03:00,
2013-03-10 20:09:00,46.9,36.1,30.14,South,182,4.0,7.0,66,0.00,,,0.00,0,Wunderground v.1.15,2013-03-11 00:09:00,
2013-03-10 20:15:00,45.9,35.9,30.15,South,172,3.0,6.0,68,0.00,,,0.00,0,Wunderground v.1.15,2013-03-11 00:15:00,
2013-03-10 20:20:00,45.1,35.9,30.14,SSW,207,2.0,2.0,70,0.00,,,0.00,0,Wunderground v.1.15,2013-03-11 00:20:00,
2013-03-10 20:26:00,44.4,35.6,30.14,SSW,205,1.0,2.0,71,0.00,,,0.00,0,Wunderground v.1.15,2013-03-11 00:26:00,
2013-03-10 20:31:00,43.8,35.4,30.14,WNW,284,1.0,2.0,72,0.00,,,0.00,0,Wunderground v.1.15,2013-03-11 00:31:00,
2013-03-10 20:36:00,43.3,35.6,30.14,WNW,286,1.0,3.0,74,0.00,,,0.00,0,Wunderground v.1.15,2013-03-11 00:36:00,
2013-03-10 20:42:00,42.9,35.5,30.15,WNW,287,2.0,3.0,75,0.00,,,0.00,0,Wunderground v.1.15,2013-03-11 00:42:00,
2013-03-10 20:48:00,42.5,35.5,30.15,WNW,303,2.0,4.0,76,0.00,,,0.00,0,Wunderground v.1.15,2013-03-11 00:48:00,
2013-03-10 20:54:00,42.1,35.1,30.15,NW,304,3.0,4.0,76,0.00,,,0.00,0,Wunderground v.1.15,2013-03-11 00:54:00,
2013-03-10 21:00:00,41.7,35.0,30.15,WNW,302,2.0,3.0,77,0.00,,,0.00,0,Wunderground v.1.15,2013-03-11 01:00:00,
2013-03-10 21:06:00,41.3,35.0,30.15,WNW,302,2.0,4.0,78,0.00,,,0.00,0,Wunderground v.1.15,2013-03-11 01:06:00,
2013-03-10 21:12:00,40.9,34.9,30.15,WNW,303,2.0,3.0,79,0.00,,,0.00,0,Wunderground v.1.15,2013-03-11 01:12:00,
2013-03-10 21:17:00,40.7,34.7,30.15,WNW,303,2.0,3.0,79,0.00,,,0.00,0,Wunderground v.1.15,2013-03-11 01:17:00,
2013-03-10 21:23:00,40.3,34.6,30.15,NW,307,2.0,4.0,80,0.00,,,0.00,0,Wunderground v.1.15,2013-03-11 01:23:00,
2013-03-10 21:28:00,40.0,34.6,30.15,NW,304,2.0,4.0,81,0.00,,,0.00,0,Wunderground v.1.15,2013-03-11 01:28:00,
2013-03-10 21:34:00,39.8,34.4,30.15,NW,314,3.0,4.0,81,0.00,,,0.00,0,Wunderground v.1.15,2013-03-11 01:34:00,
2013-03-10 21:39:00,39.7,34.3,30.15,NW,313,3.0,4.0,81,0.00,,,0.00,0,Wunderground v.1.15,2013-03-11 01:39:00,
2013-03-10 21:45:00,39.8,34.4,30.15,NW,312,2.0,3.0,81,0.00,,,0.00,0,Wunderground v.1.15,2013-03-11 01:45:00,
2013-03-10 21:52:00,39.8,34.4,30.15,NW,313,2.0,2.0,81,0.00,,,0.00,0,Wunderground v.1.15,2013-03-11 01:52:00,
2013-03-10 21:58:00,39.6,34.6,30.14,NW,313,2.0,3.0,82,0.00,,,0.00,0,Wunderground v.1.15,2013-03-11 01:58:00,
2013-03-10 22:03:00,39.5,34.8,30.14,NW,314,2.0,2.0,83,0.00,,,0.00,0,Wunderground v.1.15,2013-03-11 02:03:00,
2013-03-10 22:09:00,39.3,34.6,30.14,NW,313,1.0,2.0,83,0.00,,,0.00,0,Wunderground v.1.15,2013-03-11 02:09:00,
2013-03-10 22:15:00,39.2,34.5,30.14,NW,313,0.0,1.0,83,0.00,,,0.00,0,Wunderground v.1.15,2013-03-11 02:15:00,
2013-03-10 22:21:00,39.0,34.6,30.14,NW,313,0.0,0.0,84,0.00,,,0.00,0,Wunderground v.1.15,2013-03-11 02:21:00,
2013-03-10 22:27:00,38.9,34.5,30.14,NW,313,0.0,2.0,84,0.00,,,0.00,0,Wunderground v.1.15,2013-03-11 02:27:00,
2013-03-10 22:32:00,38.8,34.4,30.14,NW,313,0.0,0.0,84,0.00,,,0.00,0,Wunderground v.1.15,2013-03-11 02:32:00,
2013-03-10 22:38:00,38.7,34.6,30.14,NW,313,0.0,2.0,85,0.00,,,0.00,0,Wunderground v.1.15,2013-03-11 02:38:00,
2013-03-10 22:44:00,38.4,34.3,30.14,NW,313,1.0,3.0,85,0.00,,,0.00,0,Wunderground v.1.15,2013-03-11 02:44:00,
2013-03-10 22:50:00,38.3,34.2,30.14,NW,313,2.0,2.0,85,0.00,,,0.00,0,Wunderground v.1.15,2013-03-11 02:50:00,
2013-03-10 22:56:00,38.1,34.3,30.14,NW,306,2.0,5.0,86,0.00,,,0.00,0,Wunderground v.1.15,2013-03-11 02:56:00,
2013-03-10 23:02:00,37.9,34.1,30.13,WNW,302,2.0,2.0,86,0.00,,,0.00,0,Wunderground v.1.15,2013-03-11 03:02:00,
2013-03-10 23:07:00,37.8,34.0,30.13,NW,304,1.0,2.0,86,0.00,,,0.00,0,Wunderground v.1.15,2013-03-11 03:07:00,
2013-03-10 23:13:00,37.7,34.2,30.13,WNW,302,1.0,5.0,87,0.00,,,0.00,0,Wunderground v.1.15,2013-03-11 03:13:00,
2013-03-10 23:18:00,37.6,34.1,30.13,NW,309,2.0,5.0,87,0.00,,,0.00,0,Wunderground v.1.15,2013-03-11 03:18:00,
2013-03-10 23:24:00,37.5,34.3,30.13,SSW,207,2.0,2.0,88,0.00,,,0.00,0,Wunderground v.1.15,2013-03-11 03:24:00,
2013-03-10 23:30:00,37.4,33.9,30.13,SSW,204,1.0,1.0,87,0.00,,,0.00,0,Wunderground v.1.15,2013-03-11 03:30:00,
2013-03-10 23:35:00,37.3,33.8,30.12,SSW,209,1.0,1.0,87,0.00,,,0.00,0,Wunderground v.1.15,2013-03-11 03:35:00,
2013-03-10 23:41:00,37.2,34.0,30.12,SSW,209,1.0,1.0,88,0.00,,,0.00,0,Wunderground v.1.15,2013-03-11 03:41:00,
2013-03-10 23:47:00,37.1,33.6,30.11,SSW,209,0.0,1.0,87,0.00,,,0.00,0,Wunderground v.1.15,2013-03-11 03:47:00,
2013-03-10 23:53:00,37.0,33.8,30.12,WNW,303,1.0,4.0,88,0.00,,,0.00,0,Wunderground v.1.15,2013-03-11 03:53:00,
2013-03-10 23:59:00,36.8,33.9,30.12,SW,233,2.0,4.0,89,0.00,,,0.00,0,Wunderground v.1.15,2013-03-11 03:59:00,